createdAt,value
2019-04-25T00:01:46.353Z,31.87
2019-04-25T00:04:21.566Z,33.37
2019-04-25T00:06:53.984Z,31.53
2019-04-25T00:09:28.648Z,28.97
2019-04-25T00:12:02.270Z,34.83
2019-04-25T00:14:34.502Z,34.87
2019-04-25T00:17:07.502Z,36.80
2019-04-25T00:19:40.735Z,31.33
2019-04-25T00:22:51.515Z,34.80
2019-04-25T00:25:44.473Z,30.67
2019-04-25T00:28:15.198Z,28.80
2019-04-25T00:30:47.968Z,29.50
2019-04-25T00:33:21.577Z,33.40
2019-04-25T00:35:53.652Z,27.10
2019-04-25T00:38:25.656Z,31.07
2019-04-25T00:40:57.628Z,34.60
2019-04-25T00:43:31.359Z,31.30
2019-04-25T00:46:04.013Z,27.53
2019-04-25T00:48:35.963Z,30.87
2019-04-25T00:51:07.947Z,29.77
2019-04-25T00:53:40.033Z,33.23
2019-04-25T00:56:12.102Z,30.30
2019-04-25T00:58:51.317Z,25.97
2019-04-25T01:01:33.101Z,28.43
2019-04-25T01:04:05.126Z,28.00
2019-04-25T01:06:37.073Z,26.70
2019-04-25T01:09:13.806Z,27.83
2019-04-25T01:11:45.962Z,25.70
2019-04-25T01:14:18.078Z,24.13
2019-04-25T01:16:51.248Z,30.60
2019-04-25T01:19:24.454Z,27.13
2019-04-25T01:21:56.542Z,26.30
2019-04-25T01:24:28.891Z,24.30
2019-04-25T01:27:01.340Z,26.03
2019-04-25T01:29:33.528Z,29.30
2019-04-25T01:32:08.072Z,22.77
2019-04-25T01:35:00.479Z,25.50
2019-04-25T01:37:57.575Z,26.57
2019-04-25T01:40:53.083Z,23.50
2019-04-25T01:43:37.486Z,29.80
2019-04-25T01:46:10.873Z,31.00
2019-04-25T01:48:43.394Z,21.40
2019-04-25T01:51:15.548Z,26.90
2019-04-25T01:53:49.003Z,24.50
2019-04-25T01:56:21.277Z,22.93
2019-04-25T01:58:53.890Z,24.27
2019-04-25T02:01:26.872Z,25.23
2019-04-25T02:03:59.056Z,25.17
2019-04-25T02:06:31.374Z,24.20
2019-04-25T02:09:05.291Z,28.93
2019-04-25T02:11:58.914Z,21.50
2019-04-25T02:14:31.574Z,27.73
2019-04-25T02:17:04.522Z,21.73
2019-04-25T02:19:36.724Z,22.93
2019-04-25T02:22:09.326Z,28.70
2019-04-25T02:24:41.292Z,24.77
2019-04-25T02:27:13.635Z,24.00
2019-04-25T02:29:45.778Z,26.43
2019-04-25T02:32:17.955Z,25.57
2019-04-25T02:34:50.269Z,31.57
2019-04-25T02:37:22.279Z,29.80
2019-04-25T02:39:57.210Z,23.53
2019-04-25T02:42:28.378Z,22.53
2019-04-25T02:45:10.110Z,24.63
2019-04-25T02:48:05.683Z,26.43
2019-04-25T02:50:46.173Z,26.50
2019-04-25T02:53:37.299Z,22.80
2019-04-25T02:56:26.336Z,24.73
2019-04-25T02:58:44.271Z,26.87
2019-04-25T03:01:22.771Z,23.77
2019-04-25T03:03:54.359Z,24.63
2019-04-25T03:06:25.807Z,20.23
2019-04-25T03:09:00.222Z,24.80
2019-04-25T03:11:34.557Z,24.50
2019-04-25T03:14:09.500Z,25.27
2019-04-25T03:16:40.653Z,23.93
2019-04-25T03:19:46.542Z,28.27
2019-04-25T03:22:21.589Z,29.90
2019-04-25T03:24:55.098Z,25.83
2019-04-25T03:27:27.144Z,24.73
2019-04-25T03:29:59.738Z,29.60
2019-04-25T03:32:31.801Z,25.30
2019-04-25T03:35:05.549Z,27.43
2019-04-25T03:37:37.465Z,29.27
2019-04-25T03:40:11.716Z,26.53
2019-04-25T03:42:44.376Z,22.53
2019-04-25T03:45:16.329Z,28.57
2019-04-25T03:47:48.376Z,27.23
2019-04-25T03:50:20.656Z,28.70
2019-04-25T03:52:54.051Z,27.03
2019-04-25T03:55:26.309Z,29.57
2019-04-25T03:57:58.268Z,28.33
2019-04-25T04:00:30.519Z,28.50
2019-04-25T04:03:05.720Z,27.07
2019-04-25T04:05:36.448Z,28.50
2019-04-25T04:08:08.629Z,25.47
2019-04-25T04:10:40.759Z,26.13
2019-04-25T04:13:14.603Z,27.80
2019-04-25T04:15:46.536Z,25.23
2019-04-25T04:18:34.954Z,26.60
2019-04-25T04:21:33.999Z,27.10
2019-04-25T04:24:11.868Z,26.07
2019-04-25T04:26:45.531Z,26.57
2019-04-25T04:29:17.458Z,24.37
2019-04-25T04:31:49.484Z,27.53
2019-04-25T04:34:21.478Z,21.90
2019-04-25T04:36:53.770Z,21.03
2019-04-25T04:39:27.920Z,21.63
2019-04-25T04:42:00.436Z,22.97
2019-04-25T04:44:34.177Z,27.43
2019-04-25T04:47:06.134Z,27.80
2019-04-25T04:49:38.153Z,27.83
2019-04-25T04:52:11.412Z,20.00
2019-04-25T04:54:43.983Z,21.03
2019-04-25T04:57:26.653Z,23.37
2019-04-25T04:59:49.964Z,23.53
2019-04-25T05:02:30.515Z,29.80
2019-04-25T05:05:24.826Z,17.67
2019-04-25T05:08:00.343Z,24.33
2019-04-25T05:10:33.298Z,26.47
2019-04-25T05:13:05.489Z,28.10
2019-04-25T05:15:37.455Z,23.40
2019-04-25T05:18:09.490Z,28.93
2019-04-25T05:20:41.583Z,28.03
2019-04-25T05:23:15.734Z,20.33
2019-04-25T05:25:47.243Z,24.67
2019-04-25T05:28:19.570Z,19.33
2019-04-25T05:31:07.761Z,20.43
2019-04-25T05:33:40.576Z,21.37
2019-04-25T05:36:14.983Z,19.53
2019-04-25T05:38:46.346Z,21.70
2019-04-25T05:41:44.234Z,24.70
2019-04-25T05:44:16.939Z,19.73
2019-04-25T05:46:49.026Z,17.17
2019-04-25T05:49:21.378Z,18.55
2019-04-25T05:51:53.887Z,16.42
2019-04-25T05:54:26.880Z,19.05
2019-04-25T05:56:59.105Z,19.12
2019-04-25T05:59:31.105Z,20.20
2019-04-25T06:02:03.903Z,42.23
2019-04-25T06:04:37.506Z,42.00
2019-04-25T06:07:09.950Z,34.08
2019-04-25T06:10:00.859Z,23.47
2019-04-25T06:12:53.530Z,20.68
2019-04-25T06:15:28.718Z,21.48
2019-04-25T06:18:32.431Z,22.93
2019-04-25T06:21:06.396Z,19.80
2019-04-25T06:23:55.929Z,20.75
2019-04-25T06:26:36.100Z,23.35
2019-04-25T06:29:03.171Z,12.60
2019-04-25T06:31:35.392Z,20.70
2019-04-25T06:34:07.520Z,20.35
2019-04-25T06:36:39.916Z,15.48
2019-04-25T06:39:11.909Z,22.22
2019-04-25T06:41:44.233Z,18.37
2019-04-25T06:44:35.424Z,16.37
2019-04-25T06:47:32.290Z,16.02
2019-04-25T06:50:04.379Z,17.45
2019-04-25T06:52:36.364Z,16.17
2019-04-25T06:55:10.930Z,16.85
2019-04-25T06:57:44.155Z,21.42
2019-04-25T07:00:17.535Z,17.25
2019-04-25T07:02:49.539Z,19.55
2019-04-25T07:05:30.576Z,19.87
2019-04-25T07:07:56.834Z,18.15
2019-04-25T07:10:29.458Z,20.25
2019-04-25T07:13:01.650Z,15.15
2019-04-25T07:15:34.198Z,19.10
2019-04-25T07:18:07.459Z,19.20
2019-04-25T07:20:39.459Z,15.58
2019-04-25T07:23:11.440Z,17.12
2019-04-25T07:25:48.607Z,17.80
2019-04-25T07:28:48.768Z,15.40
2019-04-25T07:31:33.463Z,19.87
2019-04-25T07:34:10.743Z,15.95
2019-04-25T07:36:42.704Z,15.83
2019-04-25T07:39:15.086Z,14.47
2019-04-25T07:41:47.144Z,13.28
2019-04-25T07:44:22.029Z,18.23
2019-04-25T07:46:54.200Z,18.95
2019-04-25T07:49:26.856Z,14.13
2019-04-25T07:51:58.949Z,12.10
2019-04-25T07:54:30.995Z,17.05
2019-04-25T07:57:03.642Z,19.17
2019-04-25T07:59:36.383Z,15.53
2019-04-25T08:02:08.610Z,13.48
2019-04-25T08:04:40.936Z,14.13
2019-04-25T08:07:14.238Z,16.65
2019-04-25T08:09:46.476Z,12.45
2019-04-25T08:12:18.419Z,13.05
2019-04-25T08:14:55.487Z,15.45
2019-04-25T08:17:45.543Z,14.85
2019-04-25T08:20:20.418Z,15.40
2019-04-25T08:22:57.147Z,18.32
2019-04-25T08:25:26.175Z,12.28
2019-04-25T08:27:58.098Z,13.83
2019-04-25T08:30:31.401Z,16.85
2019-04-25T08:33:03.974Z,17.42
2019-04-25T08:35:36.537Z,14.10
2019-04-25T08:38:08.592Z,12.63
2019-04-25T08:40:42.479Z,11.63
2019-04-25T08:43:15.365Z,14.53
2019-04-25T08:45:47.564Z,13.35
2019-04-25T08:48:20.288Z,16.02
2019-04-25T08:51:03.667Z,11.80
2019-04-25T08:53:45.144Z,12.18
2019-04-25T08:56:22.273Z,11.50
2019-04-25T08:59:04.120Z,13.03
2019-04-25T09:01:47.646Z,14.45
2019-04-25T09:04:42.987Z,12.85
2019-04-25T09:07:15.774Z,14.90
2019-04-25T09:09:47.840Z,17.32
2019-04-25T09:12:20.459Z,13.30
2019-04-25T09:14:54.100Z,15.18
2019-04-25T09:17:26.241Z,16.40
2019-04-25T09:19:58.164Z,19.87
2019-04-25T09:22:30.156Z,16.85
2019-04-25T09:25:03.748Z,14.80
2019-04-25T09:27:39.238Z,15.98
2019-04-25T09:30:11.023Z,11.88
2019-04-25T09:32:44.529Z,13.03
2019-04-25T09:35:16.739Z,11.15
2019-04-25T09:37:48.702Z,13.28
2019-04-25T09:40:23.991Z,15.43
2019-04-25T09:42:56.332Z,17.50
2019-04-25T09:45:37.670Z,19.82
2019-04-25T09:48:30.801Z,18.02
2019-04-25T09:51:25.713Z,22.73
2019-04-25T09:54:03.888Z,25.97
2019-04-25T09:56:45.141Z,30.75
2019-04-25T09:59:27.143Z,17.42
2019-04-25T10:01:54.287Z,18.92
2019-04-25T10:04:26.258Z,21.07
2019-04-25T10:06:58.282Z,23.30
2019-04-25T10:09:33.666Z,30.20
2019-04-25T10:12:06.150Z,34.90
2019-04-25T10:15:24.030Z,37.13
2019-04-25T10:17:56.100Z,36.00
2019-04-25T10:20:28.280Z,22.05
2019-04-25T10:23:00.210Z,14.50
2019-04-25T10:25:33.424Z,11.48
2019-04-25T10:28:07.086Z,10.53
2019-04-25T10:30:39.541Z,12.65
2019-04-25T10:33:11.634Z,12.55
2019-04-25T10:35:52.088Z,13.65
2019-04-25T10:38:17.485Z,15.90
2019-04-25T10:40:50.331Z,21.52
2019-04-25T10:43:23.947Z,23.73
2019-04-25T10:45:56.522Z,23.83
2019-04-25T10:48:28.588Z,26.77
2019-04-25T10:51:00.903Z,33.15
2019-04-25T10:53:33.878Z,38.38
2019-04-25T10:56:06.158Z,36.10
2019-04-25T10:58:38.217Z,27.93
2019-04-25T11:01:10.646Z,29.60
2019-04-25T11:03:55.756Z,28.75
2019-04-25T11:06:29.461Z,12.40
2019-04-25T11:09:03.383Z,14.23
2019-04-25T11:11:37.368Z,13.60
2019-04-25T11:14:09.493Z,16.70
2019-04-25T11:16:42.841Z,12.90
2019-04-25T11:19:15.409Z,14.95
2019-04-25T11:21:47.728Z,10.75
2019-04-25T11:24:19.830Z,9.48
2019-04-25T11:26:51.822Z,8.30
2019-04-25T11:29:24.149Z,13.03
2019-04-25T11:31:56.475Z,8.33
2019-04-25T11:34:28.446Z,9.18
2019-04-25T11:37:01.036Z,14.63
2019-04-25T11:39:41.813Z,11.40
2019-04-25T11:42:16.066Z,12.75
2019-04-25T11:44:48.089Z,10.18
2019-04-25T11:47:20.794Z,14.18
2019-04-25T11:49:54.604Z,13.00
2019-04-25T11:52:29.985Z,13.18
2019-04-25T11:55:00.423Z,11.55
2019-04-25T11:57:32.438Z,15.53
2019-04-25T12:00:04.892Z,11.10
2019-04-25T12:02:36.874Z,12.85
2019-04-25T12:05:08.910Z,16.50
2019-04-25T12:07:40.924Z,11.18
2019-04-25T12:10:14.452Z,11.68
2019-04-25T12:12:47.394Z,13.53
2019-04-25T12:15:19.475Z,15.18
2019-04-25T12:17:51.619Z,14.13
2019-04-25T12:20:24.103Z,13.03
2019-04-25T12:23:05.935Z,14.50
2019-04-25T12:25:29.843Z,14.83
2019-04-25T12:28:02.819Z,13.25
2019-04-25T12:30:40.080Z,16.15
2019-04-25T12:33:20.722Z,11.40
2019-04-25T12:35:43.702Z,12.35
2019-04-25T12:38:15.911Z,13.30
2019-04-25T12:40:48.206Z,12.90
2019-04-25T12:43:23.967Z,14.63
2019-04-25T12:46:05.695Z,14.90
2019-04-25T12:48:37.708Z,16.55
2019-04-25T12:51:09.777Z,14.47
2019-04-25T12:53:41.769Z,16.70
2019-04-25T12:56:13.729Z,22.23
2019-04-25T12:58:45.683Z,16.67
2019-04-25T13:01:17.705Z,14.37
2019-04-25T13:03:50.858Z,13.67
2019-04-25T13:06:23.872Z,14.57
2019-04-25T13:08:55.900Z,12.80
2019-04-25T13:11:27.952Z,11.00
2019-04-25T13:14:00.294Z,11.10
2019-04-25T13:16:32.269Z,15.75
2019-04-25T13:19:16.722Z,11.88
2019-04-25T13:21:38.399Z,14.55
2019-04-25T13:24:10.550Z,12.80
2019-04-25T13:26:56.883Z,16.10
2019-04-25T13:29:53.241Z,14.10
2019-04-25T13:32:44.118Z,13.90
2019-04-25T13:35:21.198Z,10.63
2019-04-25T13:37:53.966Z,15.53
2019-04-25T13:40:26.068Z,13.37
2019-04-25T13:42:58.066Z,14.28
2019-04-25T13:45:30.355Z,16.10
2019-04-25T13:48:03.357Z,15.28
2019-04-25T13:50:36.141Z,15.70
2019-04-25T13:53:08.126Z,17.23
2019-04-25T13:55:40.506Z,16.40
2019-04-25T13:58:14.409Z,15.65
2019-04-25T14:00:47.422Z,15.37
2019-04-25T14:03:19.566Z,11.10
2019-04-25T14:05:51.630Z,19.17
2019-04-25T14:08:24.714Z,13.50
2019-04-25T14:10:57.359Z,12.33
2019-04-25T14:13:30.626Z,14.50
2019-04-25T14:16:30.759Z,14.63
2019-04-25T14:19:21.880Z,11.27
2019-04-25T14:21:56.947Z,15.77
2019-04-25T14:24:30.765Z,10.27
2019-04-25T14:27:03.690Z,12.87
2019-04-25T14:29:36.044Z,12.10
2019-04-25T14:32:09.821Z,12.17
2019-04-25T14:34:43.256Z,17.03
2019-04-25T14:37:15.385Z,14.10
2019-04-25T14:39:47.394Z,13.27
2019-04-25T14:42:19.404Z,14.73
2019-04-25T14:44:51.383Z,11.50
2019-04-25T14:47:24.392Z,11.43
2019-04-25T14:49:56.667Z,13.37
2019-04-25T14:52:28.682Z,14.80
2019-04-25T14:55:18.695Z,13.00
2019-04-25T14:57:51.129Z,10.17
2019-04-25T15:00:30.411Z,13.13
2019-04-25T15:03:02.464Z,13.83
2019-04-25T15:05:34.955Z,14.30
2019-04-25T15:08:07.526Z,13.17
2019-04-25T15:10:40.018Z,10.43
2019-04-25T15:13:12.245Z,14.93
2019-04-25T15:15:44.284Z,13.40
2019-04-25T15:18:16.362Z,13.60
2019-04-25T15:20:48.342Z,15.17
2019-04-25T15:23:21.046Z,11.93
2019-04-25T15:25:53.113Z,31.93
2019-04-25T15:28:25.126Z,22.57
2019-04-25T15:30:57.212Z,17.13
2019-04-25T15:33:30.252Z,15.33
2019-04-25T15:36:17.347Z,12.90
2019-04-25T15:38:58.196Z,18.90
2019-04-25T15:41:48.512Z,12.37
2019-04-25T15:44:39.653Z,15.20
2019-04-25T15:47:15.111Z,13.83
2019-04-25T15:49:47.182Z,15.43
2019-04-25T15:52:19.159Z,18.83
2019-04-25T15:54:51.268Z,21.93
2019-04-25T15:57:23.271Z,18.97
2019-04-25T15:59:55.370Z,18.33
2019-04-25T16:02:28.785Z,17.37
2019-04-25T16:05:01.208Z,14.53
2019-04-25T16:07:33.781Z,23.20
2019-04-25T16:10:06.819Z,18.30
2019-04-25T16:12:38.856Z,14.60
2019-04-25T16:15:11.102Z,17.40
2019-04-25T16:17:44.576Z,13.87
2019-04-25T16:20:16.736Z,17.07
2019-04-25T16:22:48.972Z,15.50
2019-04-25T16:25:22.944Z,14.43
2019-04-25T16:27:55.036Z,15.53
2019-04-25T16:30:32.449Z,15.97
2019-04-25T16:33:04.682Z,17.33
2019-04-25T16:35:37.818Z,18.80
2019-04-25T16:38:10.178Z,15.43
2019-04-25T16:40:42.150Z,13.77
2019-04-25T16:43:17.057Z,12.20
2019-04-25T16:45:49.133Z,10.47
2019-04-25T16:48:21.386Z,13.17
2019-04-25T16:50:53.386Z,14.17
2019-04-25T16:53:25.408Z,14.13
2019-04-25T16:55:57.422Z,12.90
2019-04-25T16:58:29.744Z,12.30
2019-04-25T17:01:09.622Z,13.43
2019-04-25T17:03:42.329Z,13.17
2019-04-25T17:06:14.403Z,12.80
2019-04-25T17:08:47.522Z,12.17
2019-04-25T17:11:19.838Z,12.27
2019-04-25T17:14:01.560Z,14.57
2019-04-25T17:16:42.360Z,17.17
2019-04-25T17:19:18.702Z,14.47
2019-04-25T17:21:50.778Z,18.40
2019-04-25T17:24:22.706Z,15.03
2019-04-25T17:26:54.728Z,27.40
2019-04-25T17:29:26.856Z,13.57
2019-04-25T17:32:10.923Z,17.20
2019-04-25T17:34:59.504Z,16.50
2019-04-25T17:37:41.056Z,11.43
2019-04-25T17:40:17.020Z,17.03
2019-04-25T17:42:49.063Z,18.27
2019-04-25T17:45:25.915Z,18.40
2019-04-25T17:47:57.877Z,14.97
2019-04-25T17:50:30.096Z,12.53
2019-04-25T17:53:02.174Z,20.57
2019-04-25T17:55:35.359Z,15.77
2019-04-25T17:58:07.370Z,16.77
2019-04-25T18:00:42.049Z,18.10
2019-04-25T18:03:14.309Z,19.00
2019-04-25T18:05:46.403Z,16.07
2019-04-25T18:08:18.583Z,16.93
2019-04-25T18:10:51.060Z,18.33
2019-04-25T18:13:23.053Z,22.00
2019-04-25T18:16:04.054Z,21.67
2019-04-25T18:18:58.852Z,20.23
2019-04-25T18:21:30.972Z,15.27
2019-04-25T18:24:27.958Z,19.47
2019-04-25T18:27:04.923Z,23.87
2019-04-25T18:29:39.506Z,17.27
2019-04-25T18:32:11.584Z,20.40
2019-04-25T18:34:58.722Z,26.13
2019-04-25T18:38:07.568Z,16.53
2019-04-25T18:40:47.334Z,20.07
2019-04-25T18:43:23.442Z,21.47
2019-04-25T18:46:00.011Z,20.90
2019-04-25T18:48:32.068Z,19.63
2019-04-25T18:51:04.061Z,20.23
2019-04-25T18:54:10.008Z,22.17
2019-04-25T18:56:57.462Z,24.17
2019-04-25T18:59:48.349Z,18.07
2019-04-25T19:02:46.199Z,21.67
2019-04-25T19:05:33.590Z,21.67
2019-04-25T19:08:06.366Z,19.10
2019-04-25T19:10:39.497Z,23.60
2019-04-25T19:13:12.719Z,20.97
2019-04-25T19:15:45.220Z,22.67
2019-04-25T19:18:17.318Z,24.90
2019-04-25T19:20:49.408Z,20.93
2019-04-25T19:23:21.418Z,20.73
2019-04-25T19:25:53.406Z,19.73
2019-04-25T19:28:25.505Z,22.37
2019-04-25T19:30:57.652Z,21.43
2019-04-25T19:33:35.815Z,25.07
2019-04-25T19:36:03.350Z,27.73
2019-04-25T19:38:35.291Z,23.17
2019-04-25T19:41:15.839Z,27.03
2019-04-25T19:44:01.386Z,21.73
2019-04-25T19:46:41.465Z,24.93
2019-04-25T19:49:13.874Z,22.00
2019-04-25T19:51:45.849Z,25.53
2019-04-25T19:54:17.979Z,20.33
2019-04-25T19:56:50.350Z,23.10
2019-04-25T19:59:23.642Z,23.83
2019-04-25T20:01:57.558Z,24.17
2019-04-25T20:04:53.196Z,23.62
2019-04-25T20:07:31.107Z,28.87
2019-04-25T20:10:11.221Z,23.30
2019-04-25T20:12:50.510Z,26.10
2019-04-25T20:15:21.788Z,25.63
2019-04-25T20:17:54.198Z,24.60
2019-04-25T20:20:26.380Z,20.90
2019-04-25T20:22:58.433Z,27.63
2019-04-25T20:25:30.833Z,26.13
2019-04-25T20:28:02.826Z,27.20
2019-04-25T20:30:34.846Z,24.17
2019-04-25T20:33:07.820Z,25.37
2019-04-25T20:35:40.272Z,23.20
2019-04-25T20:38:12.748Z,27.07
2019-04-25T20:40:45.352Z,22.33
2019-04-25T20:43:18.462Z,31.33
2019-04-25T20:45:50.480Z,29.20
2019-04-25T20:48:22.560Z,24.77
2019-04-25T20:50:54.599Z,22.20
2019-04-25T20:53:26.688Z,20.67
2019-04-25T20:55:58.652Z,19.87
2019-04-25T20:58:31.083Z,18.83
2019-04-25T21:01:04.061Z,22.40
2019-04-25T21:03:36.552Z,24.47
2019-04-25T21:06:15.209Z,22.53
2019-04-25T21:08:47.185Z,25.60
2019-04-25T21:11:19.159Z,23.13
2019-04-25T21:14:08.476Z,25.87
2019-04-25T21:17:02.949Z,21.67
2019-04-25T21:19:38.064Z,27.93
2019-04-25T21:22:10.872Z,22.17
2019-04-25T21:24:42.849Z,22.97
2019-04-25T21:27:14.918Z,23.80
2019-04-25T21:29:46.958Z,26.07
2019-04-25T21:32:20.875Z,21.13
2019-04-25T21:34:53.111Z,23.53
2019-04-25T21:37:26.181Z,21.67
2019-04-25T21:40:08.274Z,20.20
2019-04-25T21:42:51.579Z,23.03
2019-04-25T21:45:24.801Z,20.37
2019-04-25T21:47:57.087Z,21.73
2019-04-25T21:50:29.394Z,19.60
2019-04-25T21:53:01.773Z,17.83
2019-04-25T21:55:34.192Z,24.03
2019-04-25T21:58:06.583Z,19.00
2019-04-25T22:01:14.408Z,23.17
2019-04-25T22:03:46.885Z,23.23
2019-04-25T22:06:19.176Z,19.30
2019-04-25T22:08:51.276Z,23.77
2019-04-25T22:11:23.501Z,20.30
2019-04-25T22:13:56.604Z,26.30
2019-04-25T22:16:30.295Z,17.47
2019-04-25T22:19:02.556Z,19.63
2019-04-25T22:21:38.199Z,23.37
2019-04-25T22:24:13.780Z,22.53
2019-04-25T22:26:42.333Z,21.93
2019-04-25T22:29:14.724Z,26.27
2019-04-25T22:32:03.174Z,23.57
2019-04-25T22:34:52.098Z,26.33
2019-04-25T22:37:17.493Z,18.93
2019-04-25T22:39:50.212Z,25.93
2019-04-25T22:42:22.412Z,23.43
2019-04-25T22:44:54.635Z,25.13
2019-04-25T22:47:26.619Z,21.13
2019-04-25T22:49:58.586Z,23.83
2019-04-25T22:52:31.083Z,22.53
2019-04-25T22:55:04.253Z,22.43
2019-04-25T22:57:36.610Z,19.60
2019-04-25T23:00:12.390Z,26.80
2019-04-25T23:02:57.034Z,25.60
2019-04-25T23:05:51.468Z,21.23
2019-04-25T23:08:23.728Z,28.40
2019-04-25T23:10:55.716Z,23.77
2019-04-25T23:13:27.774Z,17.37
2019-04-25T23:16:00.302Z,25.90
2019-04-25T23:18:33.322Z,23.20
2019-04-25T23:21:06.689Z,31.33
2019-04-25T23:23:38.830Z,26.00
2019-04-25T23:26:33.072Z,24.00
2019-04-25T23:29:06.123Z,25.60
2019-04-25T23:31:38.910Z,31.10
2019-04-25T23:34:11.258Z,24.80
2019-04-25T23:36:43.294Z,25.87
2019-04-25T23:39:15.456Z,29.70
2019-04-25T23:41:47.519Z,26.43
2019-04-25T23:44:19.499Z,25.07
2019-04-25T23:46:51.821Z,26.90
2019-04-25T23:49:23.851Z,27.47
2019-04-25T23:51:56.122Z,30.17
2019-04-25T23:54:28.129Z,27.67
2019-04-25T23:57:00.839Z,24.50
2019-04-25T23:59:32.849Z,26.30
